Time;durP1;ratioP1;P1;durP2;ratioP2;P2;SDS_P1;SDS_P2;PMS_P1;PMS_P2;Temp;Humidity;BMP_temperature;BMP_pressure;BME280_temperature;BME280_humidity;BME280_pressure;Samples;Min_cycle;Max_cycle;Signal;HPM_P1;HPM_P2
2022/05/17 00:01:25;;;;;;;35.95;21.48;;;;;;;16.02;100.00;101634.75;5080498;28;20500;-74
2022/05/17 00:03:52;;;;;;;35.90;21.00;;;;;;;16.02;100.00;101631.97;5077998;28;20079;-74
2022/05/17 00:06:20;;;;;;;30.60;20.42;;;;;;;15.99;100.00;101630.03;5077407;28;20684;-74
2022/05/17 00:08:47;;;;;;;30.70;20.95;;;;;;;15.97;100.00;101626.84;5076816;28;20057;-73
2022/05/17 00:11:15;;;;;;;30.23;20.40;;;;;;;15.93;100.00;101631.66;5073388;28;20074;-74
2022/05/17 00:13:43;;;;;;;32.03;21.25;;;;;;;15.92;100.00;101630.84;5080853;28;20080;-74
2022/05/17 00:16:11;;;;;;;30.92;19.80;;;;;;;15.81;100.00;101632.16;5083276;28;20553;-75
2022/05/17 00:18:38;;;;;;;31.13;20.17;;;;;;;15.73;100.00;101625.03;5085176;28;20051;-74
2022/05/17 00:21:05;;;;;;;34.13;20.73;;;;;;;15.67;100.00;101629.47;5077687;28;20040;-73
2022/05/17 00:23:32;;;;;;;33.92;21.85;;;;;;;15.69;100.00;101633.44;5074177;28;20501;-73
2022/05/17 00:25:59;;;;;;;35.15;22.10;;;;;;;15.72;100.00;101629.03;5068202;28;20163;-74
2022/05/17 00:28:26;;;;;;;30.58;19.27;;;;;;;15.74;100.00;101618.25;5083496;28;20055;-74
2022/05/17 00:30:53;;;;;;;35.45;21.45;;;;;;;15.64;100.00;101630.28;5083476;28;20097;-74
2022/05/17 00:33:21;;;;;;;32.53;21.10;;;;;;;15.60;100.00;101624.75;5079005;28;20044;-74
2022/05/17 00:35:48;;;;;;;32.63;19.33;;;;;;;15.61;100.00;101633.88;5084995;28;20071;-76
2022/05/17 00:38:16;;;;;;;31.55;19.15;;;;;;;15.61;100.00;101623.53;5075043;28;20182;-74
2022/05/17 00:40:43;;;;;;;30.30;19.55;;;;;;;15.61;100.00;101625.53;5079661;28;20086;-74
2022/05/17 00:43:14;;;;;;;29.27;18.83;;;;;;;15.57;100.00;101620.75;5075773;28;20051;-73
2022/05/17 00:45:49;;;;;;;31.13;19.35;;;;;;;15.55;100.00;101625.16;5074376;28;20077;-74
2022/05/17 00:48:18;;;;;;;38.22;20.65;;;;;;;15.55;100.00;101618.81;5083174;28;20093;-74
2022/05/17 00:50:48;;;;;;;29.00;19.20;;;;;;;15.52;100.00;101615.63;5079050;28;20059;-74
2022/05/17 00:53:20;;;;;;;31.52;18.90;;;;;;;15.49;100.00;101610.88;5081780;28;20158;-74
2022/05/17 00:55:53;;;;;;;30.98;20.33;;;;;;;15.46;100.00;101617.25;5080294;28;20052;-74
2022/05/17 00:58:31;;;;;;;32.97;20.30;;;;;;;15.43;100.00;101615.28;5079874;28;20052;-73
2022/05/17 01:01:02;;;;;;;28.77;18.85;;;;;;;15.44;100.00;101616.88;5082440;28;20135;-74
2022/05/17 01:03:35;;;;;;;30.98;19.75;;;;;;;15.39;100.00;101614.53;5079902;28;20523;-73
2022/05/17 01:06:02;;;;;;;32.95;19.23;;;;;;;15.38;100.00;101612.94;5077669;28;20378;-74
2022/05/17 01:08:29;;;;;;;32.33;20.00;;;;;;;15.34;100.00;101620.50;5083291;28;20047;-74
2022/05/17 01:10:56;;;;;;;28.15;18.38;;;;;;;15.24;100.00;101614.97;5069691;28;20130;-73
2022/05/17 01:16:08;;;;;;;;;;;;;;;15.20;100.00;101620.59;5086565;28;20113;-74
2022/05/17 01:18:40;;;;;;;34.03;19.60;;;;;;;15.24;100.00;101621.38;5074345;28;20031;-74
2022/05/17 01:21:11;;;;;;;31.98;20.67;;;;;;;15.19;100.00;101621.00;5072367;28;20064;-73
2022/05/17 01:23:38;;;;;;;33.17;21.00;;;;;;;15.16;100.00;101617.00;5079665;28;21832;-75
2022/05/17 01:26:10;;;;;;;32.13;20.67;;;;;;;15.14;100.00;101622.22;5078775;28;20041;-75
2022/05/17 01:28:37;;;;;;;31.50;19.85;;;;;;;15.13;100.00;101609.47;5078752;28;20127;-74
2022/05/17 01:31:04;;;;;;;31.77;19.48;;;;;;;15.12;100.00;101616.25;5078891;28;20141;-76
2022/05/17 01:33:34;;;;;;;30.90;18.75;;;;;;;15.08;100.00;101612.69;5074993;28;20098;-74
2022/05/17 01:36:02;;;;;;;30.90;19.98;;;;;;;15.03;100.00;101618.69;5077019;28;20122;-74
2022/05/17 01:38:29;;;;;;;31.30;19.67;;;;;;;14.94;100.00;101609.97;5083814;28;20127;-74
2022/05/17 01:40:56;;;;;;;31.00;19.17;;;;;;;14.97;100.00;101608.38;5077110;28;20052;-74
2022/05/17 01:43:23;;;;;;;34.78;20.40;;;;;;;14.84;100.00;101616.38;5079255;28;20047;-73
2022/05/17 01:45:49;;;;;;;31.27;18.83;;;;;;;14.76;100.00;101617.63;5078586;28;20131;-75
2022/05/17 01:48:17;;;;;;;31.23;19.02;;;;;;;14.75;100.00;101615.25;5083018;28;20044;-74
2022/05/17 01:50:43;;;;;;;29.67;17.73;;;;;;;14.75;100.00;101610.44;5079115;28;20106;-73
2022/05/17 01:53:10;;;;;;;30.50;18.33;;;;;;;14.79;100.00;101610.44;5074737;28;20586;-74
2022/05/17 01:55:37;;;;;;;31.77;18.98;;;;;;;14.79;100.00;101611.22;5069732;28;20784;-74
2022/05/17 01:58:03;;;;;;;31.70;18.20;;;;;;;14.72;100.00;101613.25;5075403;28;21599;-73
2022/05/17 02:00:31;;;;;;;29.40;18.00;;;;;;;14.69;100.00;101617.66;5079592;28;20040;-75
2022/05/17 02:02:57;;;;;;;31.55;17.90;;;;;;;14.73;100.00;101612.84;5079879;28;20051;-73
2022/05/17 02:05:25;;;;;;;31.40;18.58;;;;;;;14.73;100.00;101612.06;5078722;28;20040;-74
2022/05/17 02:07:52;;;;;;;32.78;17.63;;;;;;;14.71;100.00;101608.88;5079602;28;20473;-74
2022/05/17 02:10:25;;;;;;;27.70;17.33;;;;;;;14.72;100.00;101616.81;5077516;28;20075;-74
2022/05/17 02:12:56;;;;;;;26.35;16.33;;;;;;;14.71;100.00;101615.25;5076293;28;20127;-74
2022/05/17 02:15:23;;;;;;;27.20;17.33;;;;;;;14.70;100.00;101612.84;5080448;28;20080;-75
2022/05/17 02:17:49;;;;;;;28.30;17.50;;;;;;;14.67;100.00;101608.91;5074499;28;20052;-73
2022/05/17 02:20:16;;;;;;;29.95;17.35;;;;;;;14.58;100.00;101608.53;5086206;28;20050;-74
2022/05/17 02:22:42;;;;;;;29.65;16.77;;;;;;;14.46;100.00;101603.41;5086121;28;20899;-74
2022/05/17 02:25:10;;;;;;;26.73;15.85;;;;;;;14.45;100.00;101609.38;5074324;28;20052;-73
2022/05/17 02:27:37;;;;;;;26.23;16.08;;;;;;;14.38;100.00;101612.19;5083460;28;20056;-74
2022/05/17 02:30:06;;;;;;;26.88;16.17;;;;;;;14.33;100.00;101612.56;5074295;28;20481;-73
2022/05/17 02:32:33;;;;;;;28.35;17.15;;;;;;;14.37;100.00;101613.34;5071217;28;20059;-73
2022/05/17 02:34:59;;;;;;;29.88;17.35;;;;;;;14.38;100.00;101615.72;5068301;28;20045;-73
2022/05/17 02:37:26;;;;;;;27.80;17.40;;;;;;;14.42;100.00;101618.53;5069147;28;20048;-71
2022/05/17 02:39:53;;;;;;;27.27;16.45;;;;;;;14.41;100.00;101625.28;5079982;28;20052;-73
2022/05/17 02:42:20;;;;;;;26.83;15.77;;;;;;;14.37;100.00;101622.50;5079799;28;20056;-75
2022/05/17 02:44:46;;;;;;;26.92;17.58;;;;;;;14.38;100.00;101618.53;5083833;28;20048;-72
2022/05/17 02:47:13;;;;;;;26.92;16.00;;;;;;;14.41;100.00;101626.06;5083024;28;20040;-73
2022/05/17 02:49:40;;;;;;;27.33;15.95;;;;;;;14.38;100.00;101626.09;5075442;28;20164;-73
2022/05/17 02:52:07;;;;;;;28.42;17.23;;;;;;;14.37;100.00;101628.06;5071844;28;20056;-72
2022/05/17 02:54:34;;;;;;;29.17;16.13;;;;;;;14.31;100.00;101629.66;5076368;28;20098;-73
2022/05/17 02:57:05;;;;;;;27.50;16.23;;;;;;;14.30;100.00;101633.66;5080613;28;20071;-73
2022/05/17 02:59:31;;;;;;;26.75;15.65;;;;;;;14.29;100.00;101634.06;5081697;28;20119;-73
2022/05/17 03:01:59;;;;;;;29.17;16.17;;;;;;;14.30;100.00;101635.63;5084016;28;20574;-74
2022/05/17 03:04:26;;;;;;;27.98;16.08;;;;;;;14.33;100.00;101630.06;5077067;28;20596;-73
2022/05/17 03:06:53;;;;;;;28.77;17.10;;;;;;;14.36;100.00;101631.25;5079121;28;20063;-74
2022/05/17 03:09:20;;;;;;;25.10;16.10;;;;;;;14.35;100.00;101636.03;5087780;28;20043;-74
2022/05/17 03:11:47;;;;;;;25.90;15.38;;;;;;;14.30;100.00;101632.84;5085138;28;20048;-73
2022/05/17 03:14:18;;;;;;;30.35;17.77;;;;;;;14.37;100.00;101636.44;5082619;28;20048;-73
2022/05/17 03:16:45;;;;;;;26.73;17.30;;;;;;;14.40;100.00;101637.59;5078753;28;20048;-73
2022/05/17 03:19:12;;;;;;;30.08;17.25;;;;;;;14.42;100.00;101649.97;5084507;28;20431;-74
2022/05/17 03:21:39;;;;;;;29.08;17.33;;;;;;;14.45;100.00;101651.13;5078392;28;20078;-75
2022/05/17 03:24:06;;;;;;;29.30;17.02;;;;;;;14.43;100.00;101639.59;5077996;28;20136;-73
2022/05/17 03:26:49;;;;;;;31.42;17.55;;;;;;;14.43;100.00;101643.19;5080558;28;20084;-74
2022/05/17 03:29:15;;;;;;;27.77;15.65;;;;;;;14.42;100.00;101638.81;5080880;28;20741;-72
2022/05/17 03:31:41;;;;;;;28.85;17.17;;;;;;;14.40;100.00;101638.41;5080584;28;20520;-75
2022/05/17 03:34:09;;;;;;;31.92;18.00;;;;;;;14.36;100.00;101651.56;5080530;28;20488;-74
2022/05/17 03:36:35;;;;;;;26.10;15.60;;;;;;;14.29;100.00;101648.78;5072424;28;20127;-74
2022/05/17 03:39:02;;;;;;;25.35;16.10;;;;;;;14.30;100.00;101649.56;5084445;28;20401;-75
2022/05/17 03:41:28;;;;;;;29.63;18.30;;;;;;;14.36;100.00;101653.53;5078500;28;20472;-74
2022/05/17 03:43:55;;;;;;;26.02;16.58;;;;;;;14.38;100.00;101648.38;5078582;28;20127;-75
2022/05/17 03:46:22;;;;;;;33.05;22.83;;;;;;;14.43;100.00;101650.72;5078709;28;20075;-74
2022/05/17 03:48:49;;;;;;;26.70;16.85;;;;;;;14.43;100.00;101653.50;5083311;28;20650;-74
2022/05/17 03:51:18;;;;;;;29.95;17.45;;;;;;;14.42;100.00;101660.28;5081754;28;20567;-75
2022/05/17 03:53:46;;;;;;;28.50;17.27;;;;;;;14.44;100.00;101666.25;5081360;28;20059;-73
2022/05/17 03:56:13;;;;;;;26.90;17.08;;;;;;;14.47;100.00;101663.47;5085520;28;20378;-74
2022/05/17 03:58:40;;;;;;;29.92;16.77;;;;;;;14.52;100.00;101671.41;5075908;28;20058;-73
2022/05/17 04:01:06;;;;;;;26.55;16.20;;;;;;;14.56;100.00;101666.63;5080386;28;20044;-73
2022/05/17 04:03:33;;;;;;;27.23;15.90;;;;;;;14.61;100.00;101669.00;5079954;28;20051;-73
2022/05/17 04:06:00;;;;;;;27.77;14.68;;;;;;;14.65;100.00;101658.63;5076406;28;20431;-73
2022/05/17 04:08:27;;;;;;;26.95;16.58;;;;;;;14.69;100.00;101667.00;5082610;28;20054;-73
2022/05/17 04:10:53;;;;;;;24.77;15.45;;;;;;;14.68;100.00;101660.63;5072935;28;20048;-73
2022/05/17 04:13:20;;;;;;;27.50;16.67;;;;;;;14.67;100.00;101667.41;5081262;28;20144;-74
2022/05/17 04:15:46;;;;;;;24.40;15.73;;;;;;;14.71;100.00;101673.75;5078193;28;20110;-74
2022/05/17 04:18:13;;;;;;;25.67;15.38;;;;;;;14.76;100.00;101672.53;5080272;28;20383;-74
2022/05/17 04:20:40;;;;;;;23.35;14.15;;;;;;;14.72;100.00;101658.59;5087042;28;20067;-73
2022/05/17 04:23:06;;;;;;;26.98;16.60;;;;;;;14.82;100.00;101665.38;5081569;28;20428;-74
2022/05/17 04:25:33;;;;;;;28.30;15.43;;;;;;;14.86;100.00;101666.94;5075507;28;20068;-75
2022/05/17 04:28:01;;;;;;;28.40;16.15;;;;;;;14.89;100.00;101671.69;5078639;28;20136;-76
2022/05/17 04:30:28;;;;;;;27.25;17.08;;;;;;;14.90;100.00;101672.50;5084633;28;20056;-74
2022/05/17 04:32:55;;;;;;;29.33;16.73;;;;;;;14.91;100.00;101674.88;5079365;28;20051;-74
2022/05/17 04:35:21;;;;;;;27.08;15.82;;;;;;;14.93;100.00;101678.06;5077641;28;20082;-74
2022/05/17 04:37:50;;;;;;;26.83;16.85;;;;;;;14.98;100.00;101683.19;5078564;28;20505;-75
2022/05/17 04:40:17;;;;;;;28.15;16.05;;;;;;;15.04;100.00;101678.81;5083148;28;20132;-75
2022/05/17 04:42:45;;;;;;;27.92;16.80;;;;;;;15.08;100.00;101684.34;5074586;28;20087;-73
2022/05/17 04:45:15;;;;;;;25.80;16.27;;;;;;;15.11;100.00;101678.78;5081659;28;20051;-74
2022/05/17 04:47:43;;;;;;;27.02;15.75;;;;;;;15.18;100.00;101689.09;5072835;28;20080;-73
2022/05/17 04:50:12;;;;;;;28.40;16.23;;;;;;;15.21;100.00;101683.50;5080143;28;20480;-73
2022/05/17 04:52:39;;;;;;;29.90;16.42;;;;;;;15.27;100.00;101689.44;5077238;28;20491;-74
2022/05/17 04:55:07;;;;;;;27.13;15.73;;;;;;;15.30;100.00;101692.22;5086382;28;20481;-73
2022/05/17 04:57:35;;;;;;;29.27;18.02;;;;;;;15.33;100.00;101702.56;5078371;28;20052;-73
2022/05/17 05:00:05;;;;;;;30.80;20.55;;;;;;;15.33;100.00;101696.19;5080042;28;20452;-74
2022/05/17 05:02:32;;;;;;;31.70;17.38;;;;;;;15.40;100.00;101696.19;5080077;28;20066;-74
2022/05/17 05:04:58;;;;;;;31.30;17.20;;;;;;;15.50;100.00;101706.50;5078983;28;20048;-73
2022/05/17 05:07:25;;;;;;;32.15;17.58;;;;;;;15.61;100.00;101700.84;5085716;28;20058;-73
2022/05/17 05:09:52;;;;;;;26.15;16.92;;;;;;;15.67;100.00;101699.22;5086738;28;20400;-73
2022/05/17 05:12:18;;;;;;;30.75;18.48;;;;;;;15.77;100.00;101703.94;5074744;28;20045;-74
2022/05/17 05:14:45;;;;;;;33.55;19.38;;;;;;;15.87;100.00;101697.50;5077358;28;20075;-74
2022/05/17 05:17:12;;;;;;;28.17;17.58;;;;;;;15.95;100.00;101704.59;5064866;28;20058;-74
2022/05/17 05:19:38;;;;;;;32.45;17.10;;;;;;;16.04;100.00;101702.16;5078399;28;20827;-74
2022/05/17 05:22:05;;;;;;;37.92;20.52;;;;;;;16.11;100.00;101694.50;5078543;28;20411;-74
2022/05/17 05:24:32;;;;;;;29.65;17.80;;;;;;;16.18;100.00;101696.44;5075389;28;20043;-74
2022/05/17 05:26:59;;;;;;;32.17;18.85;;;;;;;16.22;100.00;101694.41;5068783;28;20135;-73
2022/05/17 05:29:26;;;;;;;29.98;18.10;;;;;;;16.28;100.00;101696.34;5082404;28;20044;-74
2022/05/17 05:31:52;;;;;;;35.50;20.55;;;;;;;16.36;100.00;101697.06;5079869;28;20416;-74
2022/05/17 05:34:20;;;;;;;37.42;19.73;;;;;;;16.45;100.00;101703.81;5082181;28;20060;-74
2022/05/17 05:36:46;;;;;;;30.48;18.85;;;;;;;16.53;100.00;101704.50;5077316;28;20135;-74
2022/05/17 05:39:15;;;;;;;29.15;17.60;;;;;;;16.59;100.00;101700.06;5082081;28;20158;-74
2022/05/17 05:41:42;;;;;;;33.00;18.48;;;;;;;16.64;100.00;101692.03;5065872;28;20589;-74
2022/05/17 05:44:08;;;;;;;41.22;21.67;;;;;;;16.73;100.00;101697.94;5081131;28;20050;-74
2022/05/17 05:46:35;;;;;;;33.13;18.50;;;;;;;16.81;100.00;101705.00;5081496;28;20159;-74
2022/05/17 05:49:01;;;;;;;28.60;18.50;;;;;;;16.93;100.00;101703.69;5077828;28;20127;-74
2022/05/17 05:51:28;;;;;;;34.17;18.52;;;;;;;17.02;100.00;101701.19;5072679;28;20052;-74
2022/05/17 05:53:54;;;;;;;32.92;18.67;;;;;;;17.08;100.00;101705.13;5079181;28;20110;-72
2022/05/17 05:56:21;;;;;;;28.13;16.33;;;;;;;17.18;100.00;101707.78;5079539;28;20519;-76
2022/05/17 05:58:48;;;;;;;30.58;17.23;;;;;;;17.19;100.00;101706.59;5079790;28;20047;-74
2022/05/17 06:01:14;;;;;;;31.00;17.52;;;;;;;17.32;100.00;101715.22;5074656;28;20473;-74
2022/05/17 06:03:41;;;;;;;28.70;16.38;;;;;;;17.42;100.00;101719.91;5080120;28;20044;-74
2022/05/17 06:06:08;;;;;;;30.17;16.67;;;;;;;17.49;100.00;101714.22;5075490;28;20439;-73
2022/05/17 06:08:36;;;;;;;25.75;15.57;;;;;;;17.56;100.00;101714.88;5080829;28;20492;-74
2022/05/17 06:11:03;;;;;;;26.40;15.27;;;;;;;17.61;100.00;101713.63;5071144;28;20171;-72
2022/05/17 06:13:30;;;;;;;27.42;14.25;;;;;;;17.64;100.00;101715.59;5071713;28;20055;-77
2022/05/17 06:15:57;;;;;;;26.20;15.18;;;;;;;17.69;100.00;101720.72;5075749;28;20051;-75
2022/05/17 06:18:24;;;;;;;30.77;16.55;;;;;;;17.75;100.00;101716.22;5078833;28;20110;-77
2022/05/17 06:20:54;;;;;;;26.25;15.27;;;;;;;17.76;100.00;101715.03;5086326;28;20643;-76
2022/05/17 06:23:21;;;;;;;26.73;14.73;;;;;;;17.85;100.00;101720.88;5076395;28;20080;-75
2022/05/17 06:25:48;;;;;;;25.63;12.68;;;;;;;17.86;100.00;101725.28;5082940;28;20471;-76
2022/05/17 06:28:15;;;;;;;26.13;12.40;;;;;;;17.84;100.00;101728.50;5075025;28;20087;-76
2022/05/17 06:30:41;;;;;;;27.70;14.32;;;;;;;17.95;100.00;101728.31;5080614;28;20058;-77
2022/05/17 06:33:10;;;;;;;24.85;14.32;;;;;;;18.00;100.00;101725.06;5075996;28;20082;-76
2022/05/17 06:35:42;;;;;;;30.33;15.35;;;;;;;18.09;100.00;101728.09;5078248;28;20044;-76
2022/05/17 06:38:09;;;;;;;26.60;14.10;;;;;;;18.25;100.00;101722.63;5084530;28;20729;-77
2022/05/17 06:40:37;;;;;;;18.40;8.15;;;;;;;18.13;100.00;101733.66;5072774;28;20080;-77
2022/05/17 06:43:04;;;;;;;17.33;9.63;;;;;;;18.18;100.00;101733.94;5077371;28;20058;-77
2022/05/17 06:45:31;;;;;;;25.23;12.43;;;;;;;18.34;100.00;101731.28;5073382;28;20080;-77
2022/05/17 06:47:58;;;;;;;25.55;11.38;;;;;;;18.41;100.00;101724.78;5077845;28;20634;-76
2022/05/17 06:50:24;;;;;;;24.20;11.60;;;;;;;18.46;100.00;101727.13;5081222;28;20047;-76
2022/05/17 06:52:51;;;;;;;24.98;10.45;;;;;;;18.46;100.00;101733.50;5079430;27;20052;-77
2022/05/17 06:55:17;;;;;;;24.02;11.40;;;;;;;18.56;100.00;101732.53;5080016;28;20485;-76
2022/05/17 06:57:44;;;;;;;26.23;13.77;;;;;;;18.63;100.00;101738.00;5083975;28;20095;-77
2022/05/17 07:00:13;;;;;;;27.20;11.57;;;;;;;18.69;100.00;101738.31;5076475;28;20044;-76
2022/05/17 07:02:40;;;;;;;9.35;3.97;;;;;;;18.63;100.00;101737.22;5078946;28;20055;-76
2022/05/17 07:05:08;;;;;;;29.02;13.50;;;;;;;18.84;100.00;101734.81;5079521;28;20055;-77
2022/05/17 07:07:37;;;;;;;26.60;13.07;;;;;;;18.94;100.00;101736.63;5082106;28;20131;-77
2022/05/17 07:13:12;;;;;;;21.40;8.85;;;;;;;18.99;100.00;101732.53;5078428;28;20055;-77
2022/05/17 07:15:42;;;;;;;29.48;14.90;;;;;;;19.16;100.00;101739.78;5080381;28;20637;-75
2022/05/17 07:18:11;;;;;;;30.50;11.27;;;;;;;19.19;100.00;101736.13;5080726;28;20051;-75
2022/05/17 07:20:38;;;;;;;28.50;14.82;;;;;;;19.40;100.00;101744.94;5079848;28;20059;-76
2022/05/17 07:23:05;;;;;;;27.45;16.52;;;;;;;19.54;100.00;101735.44;5077886;28;20516;-78
2022/05/17 07:25:34;;;;;;;32.88;14.10;;;;;;;19.49;100.00;101736.72;5084380;28;20055;-76
2022/05/17 07:28:00;;;;;;;33.95;17.27;;;;;;;19.73;100.00;101741.00;5082369;28;20758;-75
2022/05/17 07:30:27;;;;;;;26.15;11.98;;;;;;;19.69;100.00;101737.50;5079333;28;20044;-76
2022/05/17 07:32:54;;;;;;;30.15;15.57;;;;;;;19.80;100.00;101742.84;5083282;28;20140;-76
2022/05/17 07:35:21;;;;;;;31.85;16.35;;;;;;;19.92;100.00;101748.56;5085055;28;20151;-74
2022/05/17 07:37:48;;;;;;;27.70;15.25;;;;;;;19.92;100.00;101747.78;5074382;28;20109;-75
2022/05/17 07:40:15;;;;;;;31.95;16.73;;;;;;;19.93;100.00;101752.97;5084286;28;20198;-73
2022/05/17 07:42:42;;;;;;;28.10;13.65;;;;;;;19.97;100.00;101750.88;5079926;28;20052;-69
2022/05/17 07:45:11;;;;;;;31.63;14.93;;;;;;;19.92;100.00;101751.38;5080162;28;20164;-69
2022/05/17 07:47:38;;;;;;;31.67;13.82;;;;;;;19.95;100.00;101752.53;5075604;28;20404;-72
2022/05/17 07:50:05;;;;;;;30.52;14.68;;;;;;;19.95;100.00;101756.13;5073092;28;20474;-72
2022/05/17 07:52:32;;;;;;;32.53;15.40;;;;;;;20.12;100.00;101763.38;5075761;28;20041;-72
2022/05/17 07:55:00;;;;;;;29.25;13.73;;;;;;;20.07;100.00;101768.69;5081116;28;20048;-74
2022/05/17 07:57:27;;;;;;;32.67;15.02;;;;;;;20.14;100.00;101768.56;5084051;28;20036;-75
2022/05/17 07:59:54;;;;;;;26.80;15.35;;;;;;;20.22;100.00;101770.75;5083081;28;20095;-74
2022/05/17 08:02:21;;;;;;;26.67;14.48;;;;;;;20.38;100.00;101776.41;5075522;28;20134;-74
2022/05/17 08:04:48;;;;;;;29.83;14.65;;;;;;;20.50;100.00;101771.28;5081381;28;20143;-76
2022/05/17 08:07:14;;;;;;;27.45;13.95;;;;;;;20.52;100.00;101771.66;5082594;28;20048;-72
2022/05/17 08:09:41;;;;;;;29.05;13.68;;;;;;;20.52;100.00;101777.28;5080709;28;20052;-72
2022/05/17 08:12:10;;;;;;;27.35;13.45;;;;;;;20.60;100.00;101776.66;5075879;28;20078;-73
2022/05/17 08:14:39;;;;;;;32.00;15.05;;;;;;;20.71;100.00;101776.38;5077513;28;20148;-75
2022/05/17 08:17:08;;;;;;;32.67;14.75;;;;;;;20.88;100.00;101778.72;5076369;28;20101;-76
2022/05/17 08:19:38;;;;;;;31.17;12.82;;;;;;;20.93;100.00;101781.03;5084331;28;20088;-74
2022/05/17 08:22:07;;;;;;;30.17;11.50;;;;;;;20.84;100.00;101788.47;5077621;28;20076;-76
2022/05/17 08:27:31;;;;;;;32.25;9.65;;;;;;;20.88;100.00;101784.34;5086740;28;20048;-74
2022/05/17 08:30:03;;;;;;;24.65;13.05;;;;;;;20.95;100.00;101786.22;5077230;28;20048;-75
2022/05/17 08:35:15;;;;;;;25.73;9.60;;;;;;;20.84;100.00;101788.47;5071895;28;20139;-76
2022/05/17 08:37:42;;;;;;;24.92;12.20;;;;;;;20.96;100.00;101779.34;5078113;28;20047;-76
2022/05/17 08:40:18;;;;;;;25.42;10.40;;;;;;;20.95;100.00;101787.00;5084826;28;20138;-73
2022/05/17 08:43:16;;;;;;;25.25;11.27;;;;;;;21.10;100.00;101778.97;5083889;28;20139;-73
2022/05/17 08:46:10;;;;;;;20.58;9.93;;;;;;;21.03;100.00;101776.34;5078831;28;20054;-73
2022/05/17 08:48:49;;;;;;;17.35;7.63;;;;;;;20.97;100.00;101790.16;5078839;28;20071;-74
2022/05/17 08:51:24;;;;;;;22.80;8.93;;;;;;;21.14;100.00;101797.34;5074520;28;20461;-74
2022/05/17 08:53:50;;;;;;;23.45;9.27;;;;;;;21.23;100.00;101789.03;5071630;28;20052;-73
2022/05/17 08:56:17;;;;;;;22.92;8.40;;;;;;;21.25;100.00;101791.41;5086495;28;20047;-73
2022/05/17 08:58:47;;;;;;;23.63;7.60;;;;;;;21.31;100.00;101795.25;5078591;28;20085;-75
2022/05/17 09:01:24;;;;;;;27.33;7.55;;;;;;;21.31;97.66;101793.25;5076860;28;20151;-74
2022/05/17 09:04:14;;;;;;;18.67;7.32;;;;;;;21.42;98.00;101787.28;5080068;28;20079;-74
2022/05/17 09:06:43;;;;;;;19.52;6.65;;;;;;;21.41;97.62;101791.34;5072563;28;20059;-73
2022/05/17 09:09:24;;;;;;;17.83;6.60;;;;;;;21.38;94.99;101795.06;5084705;28;20056;-73
2022/05/17 09:12:19;;;;;;;17.13;7.30;;;;;;;21.54;96.84;101792.97;5078046;28;20082;-74
2022/05/17 09:14:50;;;;;;;16.52;7.03;;;;;;;21.41;93.52;101786.50;5083587;28;20092;-73
2022/05/17 09:17:21;;;;;;;19.85;7.88;;;;;;;21.35;91.42;101787.50;5080591;28;20479;-74
2022/05/17 09:19:49;;;;;;;16.40;6.53;;;;;;;21.33;90.16;101781.53;5083230;28;20048;-72
2022/05/17 09:22:16;;;;;;;16.88;5.82;;;;;;;21.40;89.76;101792.59;5081717;28;20048;-73
2022/05/17 09:24:54;;;;;;;20.63;5.88;;;;;;;21.37;90.13;101791.47;5077821;28;20059;-73
2022/05/17 09:27:25;;;;;;;22.00;6.13;;;;;;;21.40;87.94;101798.22;5074987;28;20044;-71
2022/05/17 09:30:21;;;;;;;12.60;4.20;;;;;;;21.34;85.81;101794.38;5074989;28;20048;-73
2022/05/17 09:32:59;;;;;;;18.45;6.32;;;;;;;21.34;85.09;101788.75;5082150;28;20052;-74
2022/05/17 09:35:25;;;;;;;31.50;6.78;;;;;;;21.47;86.14;101789.56;5083476;28;20107;-74
2022/05/17 09:37:54;;;;;;;21.05;8.05;;;;;;;21.53;86.88;101785.75;5080009;28;20049;-74
2022/05/17 09:40:27;;;;;;;18.13;6.82;;;;;;;21.45;86.92;101789.22;5082319;28;20500;-74
2022/05/17 09:42:56;;;;;;;17.60;7.40;;;;;;;21.55;88.48;101794.53;5074901;28;20091;-75
2022/05/17 09:45:50;;;;;;;15.00;5.82;;;;;;;21.51;88.18;101793.88;5070146;28;20420;-75
2022/05/17 09:52:32;;;;;;;18.17;5.20;;;;;;;21.55;84.93;101794.53;5081002;28;20058;-74
2022/05/17 09:54:27;;;;;;;19.65;6.35;;;;;;;21.69;83.04;101796.94;5079193;28;19959;-74
2022/05/17 09:56:55;;;;;;;22.80;6.15;;;;;;;21.86;86.82;101792.84;5082890;28;20947;-75
2022/05/17 09:59:22;;;;;;;10.77;4.20;;;;;;;21.71;83.22;101788.84;5078639;28;20070;-75
2022/05/17 10:01:49;;;;;;;17.80;6.45;;;;;;;21.68;82.68;101786.13;5075487;28;20082;-76
2022/05/17 10:04:21;;;;;;;16.02;6.07;;;;;;;21.81;84.10;101795.41;5078860;28;20052;-75
2022/05/17 10:06:55;;;;;;;22.40;6.68;;;;;;;21.85;85.12;101791.25;5074705;28;20055;-75
2022/05/17 10:09:32;;;;;;;15.25;6.38;;;;;;;21.78;84.57;101797.13;5081625;28;20116;-75
2022/05/17 10:12:12;;;;;;;8.88;3.30;;;;;;;21.72;81.97;101800.88;5071545;28;20131;-75
2022/05/17 10:14:48;;;;;;;18.92;6.72;;;;;;;21.72;83.38;101803.69;5086888;28;20155;-75
2022/05/17 10:17:28;;;;;;;20.33;7.05;;;;;;;21.92;83.98;101805.13;5079877;28;20127;-75
2022/05/17 10:20:07;;;;;;;16.58;6.53;;;;;;;22.04;85.20;101792.28;5077599;28;20146;-75
2022/05/17 10:22:37;;;;;;;20.98;6.63;;;;;;;22.15;84.27;101801.19;5067497;28;20059;-78
2022/05/17 10:25:08;;;;;;;20.17;6.70;;;;;;;22.14;83.63;101799.63;5081736;28;20056;-75
2022/05/17 10:27:38;;;;;;;16.17;7.18;;;;;;;22.14;83.12;101799.63;5072020;28;20776;-74
2022/05/17 10:30:19;;;;;;;18.20;6.28;;;;;;;22.22;84.54;101803.78;5078334;28;20082;-75
2022/05/17 10:32:57;;;;;;;17.27;6.00;;;;;;;22.40;87.19;101804.78;5072685;28;20067;-75
2022/05/17 10:35:35;;;;;;;16.85;6.15;;;;;;;22.33;86.71;101799.38;5067879;28;20179;-74
2022/05/17 10:38:13;;;;;;;19.27;6.65;;;;;;;22.26;89.84;101793.97;5076444;28;20104;-74
2022/05/17 10:40:46;;;;;;;16.88;7.15;;;;;;;22.23;89.45;101796.91;5074618;28;20051;-73
2022/05/17 10:43:24;;;;;;;18.77;7.68;;;;;;;22.24;88.86;101793.63;5070963;28;20072;-76
2022/05/17 10:46:06;;;;;;;20.40;7.78;;;;;;;22.16;87.04;101794.31;5064070;28;20447;-69
2022/05/17 10:48:57;;;;;;;17.55;6.07;;;;;;;22.17;89.18;101796.69;5065725;28;20511;-68
2022/05/17 10:51:31;;;;;;;20.88;7.55;;;;;;;22.28;92.75;101790.72;5071522;28;20056;-71
2022/05/17 10:54:17;;;;;;;20.33;7.35;;;;;;;22.38;93.35;101783.94;5068798;28;20055;-72
2022/05/17 10:57:00;;;;;;;19.40;7.80;;;;;;;22.47;91.13;101787.63;5077991;28;20101;-74
2022/05/17 10:59:38;;;;;;;23.95;8.32;;;;;;;22.54;89.44;101786.63;5086647;28;20056;-71
2022/05/17 11:02:05;;;;;;;20.88;8.35;;;;;;;22.74;90.89;101781.50;5072507;28;20058;-77
2022/05/17 11:04:57;;;;;;;21.00;7.90;;;;;;;22.89;89.39;101774.16;5084893;28;20060;-79
2022/05/17 11:07:42;;;;;;;18.38;7.60;;;;;;;23.09;87.94;101769.00;5079931;28;20147;-76
2022/05/17 11:10:44;;;;;;;17.67;6.23;;;;;;;23.23;88.06;101753.59;5074796;28;20050;-70
2022/05/17 11:13:20;;;;;;;16.50;6.47;;;;;;;23.13;83.09;101755.53;5076781;28;20047;-75
2022/05/17 11:15:58;;;;;;;16.67;6.13;;;;;;;22.88;81.79;101760.50;5080838;28;20134;-73
2022/05/17 11:18:30;;;;;;;23.30;5.93;;;;;;;22.66;80.92;101754.78;5082557;28;20139;-74
2022/05/17 11:21:04;;;;;;;18.13;6.63;;;;;;;22.67;82.33;101757.16;5078178;28;20478;-74
2022/05/17 11:23:49;;;;;;;18.70;8.13;;;;;;;22.66;82.40;101755.59;5079874;28;20528;-76
2022/05/17 11:26:38;;;;;;;16.33;7.00;;;;;;;22.66;80.03;101757.63;5074637;28;20044;-74
2022/05/17 11:29:14;;;;;;;17.77;7.22;;;;;;;22.84;83.43;101759.81;5070583;28;20109;-72
2022/05/17 11:31:55;;;;;;;19.30;8.23;;;;;;;22.95;84.61;101755.38;5068555;28;20190;-74